Nearby METAR Reports

 

KLMT - Klamath Falls, Oregon, USA
Distance from station: WNW 15mi, 25km
Updated: 08/21/2018 11:53am
Haze, Smoke, Overcast
Haze, Smoke, Overcast
 Wind from N
Wind: N 8 mph , 13 km/h
Temperature: 73°F , 23°C
Dew Point: 45°F , 7°C
Humidity: 36%
Barometer: 30.10 inHg , 1019.3 hPa
Summary: Haze, Smoke
Clouds: Overcast
Visibility: 1 1/2 miles , 2.4 km
Cloud details: Mostly cloudy 2400 ft
Overcast 3000 ft
2018/08/21 18:53 KLMT 211853Z 35007KT 1 1/2SM HZ FU BKN024 OVC030 23/07 A3010 RMK AO2 SLP148 T02280072
KLKV - Lakeview, Oregon, USA
Distance from station: E 53mi, 85km
Updated: 08/21/2018 11:53am
Haze, Clear
Haze, Clear
 Wind from W
Wind: W 8 mph , 13 km/h
Temperature: 73°F , 23°C
Dew Point: 39°F , 4°C
Humidity: 29%
Barometer: 30.12 inHg , 1020 hPa
Summary: Haze
Clouds: Clear
Visibility: 3 miles , 5 km
2018/08/21 18:53 KLKV 211853Z AUTO 28007KT 3SM HZ CLR 23/04 A3012 RMK AO2 TSE1754 SLP664 T02280039
 
KSIY - Montague/Siskiyo, California, USA
Distance from station: WSW 58mi, 93km
Updated: 08/21/2018 12:14pm
Haze, Overcast
Haze, Overcast
 Wind from N
Wind: N 5 mph , 7 km/h
Temperature: 82°F , 28°C
Dew Point: 37°F , 3°C
Humidity: 20%
Barometer: 30.00 inHg , 1015.9 hPa
Summary: Haze
Clouds: Overcast
Visibility: 1 3/4 miles , 2.8 km
Cloud details: Mostly cloudy 2600 ft
Overcast 3300 ft
2018/08/21 19:14 KSIY 211914Z AUTO 35004KT 1 3/4SM HZ BKN026 OVC033 28/03 A3000 RMK AO2 T02780033
KAAT - Alturas, California, USA
Distance from station: SE 61mi, 98km
Updated: 08/21/2018 11:55am
Haze, Few clouds
Haze, Few clouds
 Wind from calm
Wind: Calm
Temperature: 79°F , 26°C
Dew Point: 39°F , 4°C
Humidity: 24%
Barometer: 30.08 inHg , 1018.6 hPa
Summary: Haze
Clouds: Few Clouds
Visibility: 2 1/2 miles , 4 km
Cloud details: Few Clouds 3700 ft
2018/08/21 18:55 KAAT 211855Z AUTO 00000KT 2 1/2SM HZ FEW037 26/04 A3008 RMK AO2 SLP142 T02560039
 
KMHS - Mount Shasta, California, USA
Distance from station: SW 70mi, 113km
Updated: 08/21/2018 11:56am
Haze, Overcast
Haze, Overcast
 Wind from calm
Wind: Calm
Temperature: 79°F , 26°C
Dew Point: 45°F , 7°C
Humidity: 30%
Barometer: 30.03 inHg , 1016.9 hPa
Summary: Haze
Clouds: Overcast
Visibility: 1 1/2 miles , 2.4 km
Cloud details: Mostly cloudy 2900 ft
Overcast 3500 ft
2018/08/21 18:56 KMHS 211856Z AUTO 00000KT 1 1/2SM HZ BKN029 OVC035 26/07 A3003 RMK AO2 SLP159 T02560072
KMFR - Medford, Oregon, USA
Distance from station: WNW 76mi, 123km
Updated: 08/21/2018 11:53am
Smoke, Clear
Smoke, Clear
 Wind from calm
Wind: Calm
Temperature: 73°F , 23°C
Dew Point: 48°F , 9°C
Humidity: 41%
Barometer: 29.94 inHg , 1013.9 hPa
Summary: Smoke
Clouds: Clear
Visibility: 1 3/4 miles , 2.8 km
2018/08/21 18:53 KMFR 211853Z 00000KT 1 3/4SM FU CLR 23/09 A2994 RMK AO2 SLP128 T02330089